sensor_id;sensor_type;location;lat;lon;timestamp;P1;durP1;ratioP1;P2;durP2;ratioP2
19374;SDS011;9823;50.936;4.046;2023-02-28T00:01:33;12.07;;;5.73;;
19374;SDS011;9823;50.936;4.046;2023-02-28T00:03:59;17.40;;;6.57;;
19374;SDS011;9823;50.936;4.046;2023-02-28T00:06:25;11.57;;;5.70;;
19374;SDS011;9823;50.936;4.046;2023-02-28T00:08:54;12.17;;;6.03;;
19374;SDS011;9823;50.936;4.046;2023-02-28T00:11:20;11.93;;;6.23;;
19374;SDS011;9823;50.936;4.046;2023-02-28T00:13:48;16.53;;;6.23;;
19374;SDS011;9823;50.936;4.046;2023-02-28T00:16:16;15.03;;;6.03;;
19374;SDS011;9823;50.936;4.046;2023-02-28T00:18:42;11.23;;;5.50;;
19374;SDS011;9823;50.936;4.046;2023-02-28T00:21:08;14.10;;;5.87;;
19374;SDS011;9823;50.936;4.046;2023-02-28T00:23:34;12.30;;;6.00;;
19374;SDS011;9823;50.936;4.046;2023-02-28T00:26:00;18.93;;;6.13;;
19374;SDS011;9823;50.936;4.046;2023-02-28T00:28:26;16.23;;;6.40;;
19374;SDS011;9823;50.936;4.046;2023-02-28T00:30:55;16.60;;;5.87;;
19374;SDS011;9823;50.936;4.046;2023-02-28T00:33:24;22.33;;;6.80;;
19374;SDS011;9823;50.936;4.046;2023-02-28T00:36:00;12.40;;;6.80;;
19374;SDS011;9823;50.936;4.046;2023-02-28T00:38:26;15.70;;;6.97;;
19374;SDS011;9823;50.936;4.046;2023-02-28T00:40:52;11.33;;;6.23;;
19374;SDS011;9823;50.936;4.046;2023-02-28T00:43:18;10.70;;;5.87;;
19374;SDS011;9823;50.936;4.046;2023-02-28T00:45:44;18.63;;;6.73;;
19374;SDS011;9823;50.936;4.046;2023-02-28T00:48:10;15.03;;;5.80;;
19374;SDS011;9823;50.936;4.046;2023-02-28T00:50:36;13.07;;;6.20;;
19374;SDS011;9823;50.936;4.046;2023-02-28T00:53:03;12.90;;;6.00;;
19374;SDS011;9823;50.936;4.046;2023-02-28T00:55:29;12.80;;;5.90;;
19374;SDS011;9823;50.936;4.046;2023-02-28T00:57:55;18.27;;;6.97;;
19374;SDS011;9823;50.936;4.046;2023-02-28T01:00:25;8.37;;;5.20;;
19374;SDS011;9823;50.936;4.046;2023-02-28T01:02:51;13.53;;;5.80;;
19374;SDS011;9823;50.936;4.046;2023-02-28T01:05:17;16.27;;;6.83;;
19374;SDS011;9823;50.936;4.046;2023-02-28T01:07:43;22.03;;;6.93;;
19374;SDS011;9823;50.936;4.046;2023-02-28T01:10:10;15.37;;;6.27;;
19374;SDS011;9823;50.936;4.046;2023-02-28T01:12:36;15.57;;;5.97;;
19374;SDS011;9823;50.936;4.046;2023-02-28T01:15:02;12.90;;;6.53;;
19374;SDS011;9823;50.936;4.046;2023-02-28T01:17:31;14.40;;;6.73;;
19374;SDS011;9823;50.936;4.046;2023-02-28T01:19:59;16.57;;;6.50;;
19374;SDS011;9823;50.936;4.046;2023-02-28T01:22:28;15.90;;;7.20;;
19374;SDS011;9823;50.936;4.046;2023-02-28T01:24:54;13.87;;;7.40;;
19374;SDS011;9823;50.936;4.046;2023-02-28T01:27:22;12.33;;;5.73;;
19374;SDS011;9823;50.936;4.046;2023-02-28T01:29:48;21.20;;;7.37;;
19374;SDS011;9823;50.936;4.046;2023-02-28T01:32:16;13.03;;;6.77;;
19374;SDS011;9823;50.936;4.046;2023-02-28T01:34:42;17.00;;;7.50;;
19374;SDS011;9823;50.936;4.046;2023-02-28T01:37:08;15.30;;;6.17;;
19374;SDS011;9823;50.936;4.046;2023-02-28T01:39:34;17.67;;;7.60;;
19374;SDS011;9823;50.936;4.046;2023-02-28T01:42:00;12.40;;;6.27;;
19374;SDS011;9823;50.936;4.046;2023-02-28T01:45:28;11.37;;;6.07;;
19374;SDS011;9823;50.936;4.046;2023-02-28T01:47:25;15.10;;;6.23;;
19374;SDS011;9823;50.936;4.046;2023-02-28T01:49:52;10.93;;;6.17;;
19374;SDS011;9823;50.936;4.046;2023-02-28T01:52:18;13.47;;;6.70;;
19374;SDS011;9823;50.936;4.046;2023-02-28T01:54:50;15.03;;;6.60;;
19374;SDS011;9823;50.936;4.046;2023-02-28T01:57:17;22.53;;;6.80;;
19374;SDS011;9823;50.936;4.046;2023-02-28T01:59:54;11.67;;;6.20;;
19374;SDS011;9823;50.936;4.046;2023-02-28T02:02:23;12.67;;;6.53;;
19374;SDS011;9823;50.936;4.046;2023-02-28T02:05:03;11.90;;;6.17;;
19374;SDS011;9823;50.936;4.046;2023-02-28T02:07:29;10.03;;;6.13;;
19374;SDS011;9823;50.936;4.046;2023-02-28T02:15:16;14.97;;;6.47;;
19374;SDS011;9823;50.936;4.046;2023-02-28T02:17:44;15.27;;;6.87;;
19374;SDS011;9823;50.936;4.046;2023-02-28T02:20:27;12.47;;;6.60;;
19374;SDS011;9823;50.936;4.046;2023-02-28T02:26:00;12.87;;;6.33;;
19374;SDS011;9823;50.936;4.046;2023-02-28T02:36:23;17.27;;;7.30;;
19374;SDS011;9823;50.936;4.046;2023-02-28T02:38:58;14.77;;;7.33;;
19374;SDS011;9823;50.936;4.046;2023-02-28T02:41:35;15.37;;;7.03;;
19374;SDS011;9823;50.936;4.046;2023-02-28T02:44:04;12.47;;;7.33;;
19374;SDS011;9823;50.936;4.046;2023-02-28T02:46:36;15.70;;;7.33;;
19374;SDS011;9823;50.936;4.046;2023-02-28T02:49:06;17.17;;;7.50;;
19374;SDS011;9823;50.936;4.046;2023-02-28T02:51:34;12.20;;;7.13;;
19374;SDS011;9823;50.936;4.046;2023-02-28T02:54:05;17.00;;;7.23;;
19374;SDS011;9823;50.936;4.046;2023-02-28T02:56:33;15.30;;;7.67;;
19374;SDS011;9823;50.936;4.046;2023-02-28T02:59:03;17.40;;;7.73;;
19374;SDS011;9823;50.936;4.046;2023-02-28T03:01:32;16.83;;;7.57;;
19374;SDS011;9823;50.936;4.046;2023-02-28T03:04:03;21.33;;;9.03;;
19374;SDS011;9823;50.936;4.046;2023-02-28T03:06:30;17.77;;;8.60;;
19374;SDS011;9823;50.936;4.046;2023-02-28T03:08:56;15.77;;;7.10;;
19374;SDS011;9823;50.936;4.046;2023-02-28T03:11:22;14.43;;;7.37;;
19374;SDS011;9823;50.936;4.046;2023-02-28T03:16:36;16.20;;;8.33;;
19374;SDS011;9823;50.936;4.046;2023-02-28T03:26:49;28.10;;;9.87;;
19374;SDS011;9823;50.936;4.046;2023-02-28T03:29:25;18.43;;;9.30;;
19374;SDS011;9823;50.936;4.046;2023-02-28T03:36:59;15.73;;;8.40;;
19374;SDS011;9823;50.936;4.046;2023-02-28T03:42:11;22.60;;;9.20;;
19374;SDS011;9823;50.936;4.046;2023-02-28T03:44:42;21.20;;;9.87;;
19374;SDS011;9823;50.936;4.046;2023-02-28T03:47:11;15.53;;;8.17;;
19374;SDS011;9823;50.936;4.046;2023-02-28T03:49:40;18.83;;;8.37;;
19374;SDS011;9823;50.936;4.046;2023-02-28T03:52:08;17.47;;;8.37;;
19374;SDS011;9823;50.936;4.046;2023-02-28T03:54:43;14.70;;;7.50;;
19374;SDS011;9823;50.936;4.046;2023-02-28T03:59:43;15.07;;;7.77;;
19374;SDS011;9823;50.936;4.046;2023-02-28T04:02:10;16.33;;;8.13;;
19374;SDS011;9823;50.936;4.046;2023-02-28T04:04:38;18.20;;;8.43;;
19374;SDS011;9823;50.936;4.046;2023-02-28T04:07:19;16.07;;;8.57;;
19374;SDS011;9823;50.936;4.046;2023-02-28T04:09:45;16.63;;;8.70;;
19374;SDS011;9823;50.936;4.046;2023-02-28T04:12:11;18.90;;;8.90;;
19374;SDS011;9823;50.936;4.046;2023-02-28T04:14:37;23.47;;;10.00;;
19374;SDS011;9823;50.936;4.046;2023-02-28T04:17:07;23.10;;;9.53;;
19374;SDS011;9823;50.936;4.046;2023-02-28T04:19:33;15.83;;;8.87;;
19374;SDS011;9823;50.936;4.046;2023-02-28T04:22:02;19.90;;;8.87;;
19374;SDS011;9823;50.936;4.046;2023-02-28T04:24:28;22.23;;;9.70;;
19374;SDS011;9823;50.936;4.046;2023-02-28T04:26:55;24.60;;;10.00;;
19374;SDS011;9823;50.936;4.046;2023-02-28T04:29:30;17.97;;;8.70;;
19374;SDS011;9823;50.936;4.046;2023-02-28T04:32:02;17.43;;;8.13;;
19374;SDS011;9823;50.936;4.046;2023-02-28T04:34:29;19.43;;;8.30;;
19374;SDS011;9823;50.936;4.046;2023-02-28T04:36:56;21.93;;;9.13;;
19374;SDS011;9823;50.936;4.046;2023-02-28T04:39:24;24.87;;;9.33;;
19374;SDS011;9823;50.936;4.046;2023-02-28T04:41:50;29.83;;;10.27;;
19374;SDS011;9823;50.936;4.046;2023-02-28T04:44:19;21.73;;;8.80;;
19374;SDS011;9823;50.936;4.046;2023-02-28T04:46:47;21.60;;;8.50;;
19374;SDS011;9823;50.936;4.046;2023-02-28T04:49:13;19.20;;;8.87;;
19374;SDS011;9823;50.936;4.046;2023-02-28T04:51:40;25.87;;;9.67;;
19374;SDS011;9823;50.936;4.046;2023-02-28T04:54:06;25.47;;;9.10;;
19374;SDS011;9823;50.936;4.046;2023-02-28T04:56:32;21.83;;;10.30;;
19374;SDS011;9823;50.936;4.046;2023-02-28T04:58:59;32.63;;;9.47;;
19374;SDS011;9823;50.936;4.046;2023-02-28T05:03:51;17.13;;;8.60;;
19374;SDS011;9823;50.936;4.046;2023-02-28T05:06:18;19.23;;;9.23;;
19374;SDS011;9823;50.936;4.046;2023-02-28T05:08:47;23.90;;;8.97;;
19374;SDS011;9823;50.936;4.046;2023-02-28T05:11:15;15.03;;;8.40;;
19374;SDS011;9823;50.936;4.046;2023-02-28T05:13:41;24.73;;;9.87;;
19374;SDS011;9823;50.936;4.046;2023-02-28T05:16:07;15.47;;;7.20;;
19374;SDS011;9823;50.936;4.046;2023-02-28T05:18:33;19.50;;;9.07;;
19374;SDS011;9823;50.936;4.046;2023-02-28T05:20:59;21.47;;;9.50;;
19374;SDS011;9823;50.936;4.046;2023-02-28T05:23:28;33.30;;;9.73;;
19374;SDS011;9823;50.936;4.046;2023-02-28T05:25:57;20.33;;;8.50;;
19374;SDS011;9823;50.936;4.046;2023-02-28T05:28:23;15.73;;;8.30;;
19374;SDS011;9823;50.936;4.046;2023-02-28T05:30:49;22.13;;;9.43;;
19374;SDS011;9823;50.936;4.046;2023-02-28T05:33:15;25.97;;;9.47;;
19374;SDS011;9823;50.936;4.046;2023-02-28T05:35:41;23.93;;;9.03;;
19374;SDS011;9823;50.936;4.046;2023-02-28T05:38:10;18.47;;;8.40;;
19374;SDS011;9823;50.936;4.046;2023-02-28T05:40:38;23.47;;;9.43;;
19374;SDS011;9823;50.936;4.046;2023-02-28T05:43:07;29.57;;;10.30;;
19374;SDS011;9823;50.936;4.046;2023-02-28T05:45:37;19.57;;;8.77;;
19374;SDS011;9823;50.936;4.046;2023-02-28T05:48:03;24.77;;;10.13;;
19374;SDS011;9823;50.936;4.046;2023-02-28T05:50:29;18.00;;;8.47;;
19374;SDS011;9823;50.936;4.046;2023-02-28T05:52:55;20.63;;;9.17;;
19374;SDS011;9823;50.936;4.046;2023-02-28T05:55:26;19.47;;;8.77;;
19374;SDS011;9823;50.936;4.046;2023-02-28T05:57:52;25.47;;;9.63;;
19374;SDS011;9823;50.936;4.046;2023-02-28T06:00:21;34.33;;;10.47;;
19374;SDS011;9823;50.936;4.046;2023-02-28T06:02:47;20.13;;;9.73;;
19374;SDS011;9823;50.936;4.046;2023-02-28T06:05:14;24.23;;;10.30;;
19374;SDS011;9823;50.936;4.046;2023-02-28T06:07:40;24.70;;;10.37;;
19374;SDS011;9823;50.936;4.046;2023-02-28T06:10:06;19.13;;;9.47;;
19374;SDS011;9823;50.936;4.046;2023-02-28T06:12:36;35.67;;;11.20;;
19374;SDS011;9823;50.936;4.046;2023-02-28T06:15:02;17.53;;;8.50;;
19374;SDS011;9823;50.936;4.046;2023-02-28T06:17:28;32.93;;;11.10;;
19374;SDS011;9823;50.936;4.046;2023-02-28T06:19:56;22.87;;;8.87;;
19374;SDS011;9823;50.936;4.046;2023-02-28T06:22:22;26.33;;;9.43;;
19374;SDS011;9823;50.936;4.046;2023-02-28T06:24:48;36.80;;;11.47;;
19374;SDS011;9823;50.936;4.046;2023-02-28T06:27:17;27.20;;;10.37;;
19374;SDS011;9823;50.936;4.046;2023-02-28T06:29:44;28.23;;;10.40;;
19374;SDS011;9823;50.936;4.046;2023-02-28T06:32:10;21.20;;;9.93;;
19374;SDS011;9823;50.936;4.046;2023-02-28T06:34:36;22.23;;;9.83;;
19374;SDS011;9823;50.936;4.046;2023-02-28T06:37:02;25.97;;;9.93;;
19374;SDS011;9823;50.936;4.046;2023-02-28T06:39:31;30.90;;;11.77;;
19374;SDS011;9823;50.936;4.046;2023-02-28T06:41:57;23.77;;;11.10;;
19374;SDS011;9823;50.936;4.046;2023-02-28T06:44:26;23.77;;;9.80;;
19374;SDS011;9823;50.936;4.046;2023-02-28T06:46:52;32.63;;;10.80;;
19374;SDS011;9823;50.936;4.046;2023-02-28T06:49:18;21.60;;;8.77;;
19374;SDS011;9823;50.936;4.046;2023-02-28T06:51:44;19.87;;;9.20;;
19374;SDS011;9823;50.936;4.046;2023-02-28T06:54:11;19.87;;;8.43;;
19374;SDS011;9823;50.936;4.046;2023-02-28T06:56:37;15.17;;;8.00;;
19374;SDS011;9823;50.936;4.046;2023-02-28T06:59:03;28.67;;;8.33;;
19374;SDS011;9823;50.936;4.046;2023-02-28T07:01:29;20.83;;;7.33;;
19374;SDS011;9823;50.936;4.046;2023-02-28T07:03:56;16.57;;;7.97;;
19374;SDS011;9823;50.936;4.046;2023-02-28T07:06:25;18.23;;;8.23;;
19374;SDS011;9823;50.936;4.046;2023-02-28T07:08:54;20.03;;;9.73;;
19374;SDS011;9823;50.936;4.046;2023-02-28T07:11:21;16.33;;;7.93;;
19374;SDS011;9823;50.936;4.046;2023-02-28T07:13:50;19.73;;;8.10;;
19374;SDS011;9823;50.936;4.046;2023-02-28T07:16:19;19.47;;;8.57;;
19374;SDS011;9823;50.936;4.046;2023-02-28T07:18:48;20.07;;;9.17;;
19374;SDS011;9823;50.936;4.046;2023-02-28T07:21:17;14.90;;;8.03;;
19374;SDS011;9823;50.936;4.046;2023-02-28T07:23:43;19.73;;;9.67;;
19374;SDS011;9823;50.936;4.046;2023-02-28T07:26:11;27.47;;;8.70;;
19374;SDS011;9823;50.936;4.046;2023-02-28T07:28:40;25.40;;;9.80;;
19374;SDS011;9823;50.936;4.046;2023-02-28T07:31:07;20.00;;;8.37;;
19374;SDS011;9823;50.936;4.046;2023-02-28T07:33:34;22.90;;;9.47;;
19374;SDS011;9823;50.936;4.046;2023-02-28T07:36:05;16.23;;;8.30;;
19374;SDS011;9823;50.936;4.046;2023-02-28T07:38:34;17.50;;;8.40;;
19374;SDS011;9823;50.936;4.046;2023-02-28T07:41:00;18.70;;;8.70;;
19374;SDS011;9823;50.936;4.046;2023-02-28T07:43:29;22.03;;;9.10;;
19374;SDS011;9823;50.936;4.046;2023-02-28T07:45:55;20.97;;;8.10;;
19374;SDS011;9823;50.936;4.046;2023-02-28T07:48:21;26.73;;;9.60;;
19374;SDS011;9823;50.936;4.046;2023-02-28T07:50:56;20.70;;;9.40;;
19374;SDS011;9823;50.936;4.046;2023-02-28T07:53:22;22.47;;;10.13;;
19374;SDS011;9823;50.936;4.046;2023-02-28T07:55:48;24.37;;;9.90;;
19374;SDS011;9823;50.936;4.046;2023-02-28T07:58:14;18.00;;;8.67;;
19374;SDS011;9823;50.936;4.046;2023-02-28T08:00:42;24.67;;;8.93;;
19374;SDS011;9823;50.936;4.046;2023-02-28T08:03:11;32.77;;;10.60;;
19374;SDS011;9823;50.936;4.046;2023-02-28T08:05:38;22.60;;;10.47;;
19374;SDS011;9823;50.936;4.046;2023-02-28T08:08:05;24.40;;;9.37;;
19374;SDS011;9823;50.936;4.046;2023-02-28T08:10:31;20.50;;;8.87;;
19374;SDS011;9823;50.936;4.046;2023-02-28T08:12:59;19.47;;;9.20;;
19374;SDS011;9823;50.936;4.046;2023-02-28T08:15:25;16.00;;;8.57;;
19374;SDS011;9823;50.936;4.046;2023-02-28T08:17:51;18.83;;;9.57;;
19374;SDS011;9823;50.936;4.046;2023-02-28T08:20:18;18.27;;;8.00;;
19374;SDS011;9823;50.936;4.046;2023-02-28T08:22:46;26.60;;;10.53;;
19374;SDS011;9823;50.936;4.046;2023-02-28T08:25:12;20.37;;;10.73;;
19374;SDS011;9823;50.936;4.046;2023-02-28T08:27:40;17.30;;;8.30;;
19374;SDS011;9823;50.936;4.046;2023-02-28T08:30:07;10.87;;;7.40;;
19374;SDS011;9823;50.936;4.046;2023-02-28T08:32:35;17.57;;;7.73;;
19374;SDS011;9823;50.936;4.046;2023-02-28T08:35:08;17.80;;;9.37;;
19374;SDS011;9823;50.936;4.046;2023-02-28T08:37:35;18.07;;;8.43;;
19374;SDS011;9823;50.936;4.046;2023-02-28T08:40:01;11.97;;;6.53;;
19374;SDS011;9823;50.936;4.046;2023-02-28T08:42:29;16.57;;;7.80;;
19374;SDS011;9823;50.936;4.046;2023-02-28T08:44:57;11.27;;;6.50;;
19374;SDS011;9823;50.936;4.046;2023-02-28T08:47:29;10.87;;;6.20;;
19374;SDS011;9823;50.936;4.046;2023-02-28T08:49:55;17.07;;;7.30;;
19374;SDS011;9823;50.936;4.046;2023-02-28T08:52:21;14.73;;;7.20;;
19374;SDS011;9823;50.936;4.046;2023-02-28T08:54:50;12.30;;;6.27;;
19374;SDS011;9823;50.936;4.046;2023-02-28T08:57:16;14.90;;;7.10;;
19374;SDS011;9823;50.936;4.046;2023-02-28T08:59:44;14.77;;;6.33;;
19374;SDS011;9823;50.936;4.046;2023-02-28T09:02:14;17.90;;;6.90;;
19374;SDS011;9823;50.936;4.046;2023-02-28T09:04:45;15.23;;;8.13;;
19374;SDS011;9823;50.936;4.046;2023-02-28T09:07:11;11.73;;;6.13;;
19374;SDS011;9823;50.936;4.046;2023-02-28T09:09:40;18.40;;;7.53;;
19374;SDS011;9823;50.936;4.046;2023-02-28T09:12:18;29.37;;;6.37;;
19374;SDS011;9823;50.936;4.046;2023-02-28T09:14:45;12.40;;;5.10;;
19374;SDS011;9823;50.936;4.046;2023-02-28T09:17:13;19.10;;;6.10;;
19374;SDS011;9823;50.936;4.046;2023-02-28T09:19:42;15.33;;;6.33;;
19374;SDS011;9823;50.936;4.046;2023-02-28T09:22:14;11.17;;;5.17;;
19374;SDS011;9823;50.936;4.046;2023-02-28T09:24:40;13.77;;;4.80;;
19374;SDS011;9823;50.936;4.046;2023-02-28T09:27:07;13.23;;;5.50;;
19374;SDS011;9823;50.936;4.046;2023-02-28T09:29:35;11.60;;;4.80;;
19374;SDS011;9823;50.936;4.046;2023-02-28T09:32:01;15.43;;;5.50;;
19374;SDS011;9823;50.936;4.046;2023-02-28T09:34:30;11.50;;;5.50;;
19374;SDS011;9823;50.936;4.046;2023-02-28T09:36:56;7.80;;;4.57;;
19374;SDS011;9823;50.936;4.046;2023-02-28T09:39:25;9.33;;;3.80;;
19374;SDS011;9823;50.936;4.046;2023-02-28T09:41:54;8.40;;;3.47;;
19374;SDS011;9823;50.936;4.046;2023-02-28T09:44:35;11.87;;;4.10;;
19374;SDS011;9823;50.936;4.046;2023-02-28T09:47:44;13.13;;;5.93;;
19374;SDS011;9823;50.936;4.046;2023-02-28T09:49:54;7.90;;;4.03;;
19374;SDS011;9823;50.936;4.046;2023-02-28T09:52:24;5.57;;;3.00;;
19374;SDS011;9823;50.936;4.046;2023-02-28T09:54:52;9.60;;;5.03;;
19374;SDS011;9823;50.936;4.046;2023-02-28T10:05:14;15.17;;;6.17;;
19374;SDS011;9823;50.936;4.046;2023-02-28T10:10:43;9.37;;;3.40;;
19374;SDS011;9823;50.936;4.046;2023-02-28T10:15:42;6.97;;;2.77;;
19374;SDS011;9823;50.936;4.046;2023-02-28T10:18:10;7.30;;;3.50;;
19374;SDS011;9823;50.936;4.046;2023-02-28T10:20:39;9.83;;;2.83;;
19374;SDS011;9823;50.936;4.046;2023-02-28T10:25:35;10.97;;;3.70;;
19374;SDS011;9823;50.936;4.046;2023-02-28T10:28:20;8.20;;;3.40;;
19374;SDS011;9823;50.936;4.046;2023-02-28T10:30:50;9.60;;;3.00;;
19374;SDS011;9823;50.936;4.046;2023-02-28T10:33:21;8.73;;;2.80;;
19374;SDS011;9823;50.936;4.046;2023-02-28T10:35:47;8.10;;;4.27;;
19374;SDS011;9823;50.936;4.046;2023-02-28T10:38:19;9.97;;;2.90;;
19374;SDS011;9823;50.936;4.046;2023-02-28T10:40:45;4.83;;;2.57;;
19374;SDS011;9823;50.936;4.046;2023-02-28T10:45:55;8.77;;;4.00;;
19374;SDS011;9823;50.936;4.046;2023-02-28T10:53:22;10.80;;;3.10;;
19374;SDS011;9823;50.936;4.046;2023-02-28T10:58:53;4.13;;;2.33;;
19374;SDS011;9823;50.936;4.046;2023-02-28T11:01:41;8.50;;;3.53;;
19374;SDS011;9823;50.936;4.046;2023-02-28T11:04:20;6.87;;;3.40;;
19374;SDS011;9823;50.936;4.046;2023-02-28T11:09:41;10.63;;;3.60;;
19374;SDS011;9823;50.936;4.046;2023-02-28T11:14:49;7.40;;;3.20;;
19374;SDS011;9823;50.936;4.046;2023-02-28T11:17:26;9.83;;;3.20;;
19374;SDS011;9823;50.936;4.046;2023-02-28T11:19:53;11.30;;;3.97;;
19374;SDS011;9823;50.936;4.046;2023-02-28T11:22:23;11.57;;;3.73;;
19374;SDS011;9823;50.936;4.046;2023-02-28T11:24:53;4.37;;;2.50;;
19374;SDS011;9823;50.936;4.046;2023-02-28T11:29:59;8.00;;;4.00;;
19374;SDS011;9823;50.936;4.046;2023-02-28T11:32:26;6.00;;;3.10;;
19374;SDS011;9823;50.936;4.046;2023-02-28T11:37:35;11.17;;;4.23;;
19374;SDS011;9823;50.936;4.046;2023-02-28T11:40:16;7.43;;;3.33;;
19374;SDS011;9823;50.936;4.046;2023-02-28T11:53:00;9.70;;;3.50;;
19374;SDS011;9823;50.936;4.046;2023-02-28T12:11:17;14.17;;;4.10;;
19374;SDS011;9823;50.936;4.046;2023-02-28T12:16:24;17.20;;;4.50;;
19374;SDS011;9823;50.936;4.046;2023-02-28T12:24:00;11.07;;;3.60;;
19374;SDS011;9823;50.936;4.046;2023-02-28T12:28:54;11.10;;;3.50;;
19374;SDS011;9823;50.936;4.046;2023-02-28T12:31:27;8.90;;;3.53;;
19374;SDS011;9823;50.936;4.046;2023-02-28T12:34:03;10.57;;;3.77;;
19374;SDS011;9823;50.936;4.046;2023-02-28T12:36:30;4.90;;;2.67;;
19374;SDS011;9823;50.936;4.046;2023-02-28T12:39:16;9.73;;;2.93;;
19374;SDS011;9823;50.936;4.046;2023-02-28T12:41:45;8.67;;;4.00;;
19374;SDS011;9823;50.936;4.046;2023-02-28T12:44:17;7.70;;;3.40;;
19374;SDS011;9823;50.936;4.046;2023-02-28T12:46:50;7.83;;;2.80;;
19374;SDS011;9823;50.936;4.046;2023-02-28T12:49:27;5.53;;;2.90;;
19374;SDS011;9823;50.936;4.046;2023-02-28T12:51:56;8.87;;;3.50;;
19374;SDS011;9823;50.936;4.046;2023-02-28T12:59:39;7.40;;;3.20;;
19374;SDS011;9823;50.936;4.046;2023-02-28T13:09:56;8.87;;;3.37;;
19374;SDS011;9823;50.936;4.046;2023-02-28T13:12:23;8.20;;;3.00;;
19374;SDS011;9823;50.936;4.046;2023-02-28T13:14:52;9.27;;;4.57;;
19374;SDS011;9823;50.936;4.046;2023-02-28T13:17:29;8.27;;;3.43;;
19374;SDS011;9823;50.936;4.046;2023-02-28T13:19:56;4.10;;;2.40;;
19374;SDS011;9823;50.936;4.046;2023-02-28T13:24:55;4.73;;;2.60;;
19374;SDS011;9823;50.936;4.046;2023-02-28T13:27:23;8.30;;;4.10;;
19374;SDS011;9823;50.936;4.046;2023-02-28T13:29:51;11.73;;;3.57;;
19374;SDS011;9823;50.936;4.046;2023-02-28T13:32:28;9.87;;;3.60;;
19374;SDS011;9823;50.936;4.046;2023-02-28T13:47:43;11.43;;;4.40;;
19374;SDS011;9823;50.936;4.046;2023-02-28T13:53:32;5.43;;;3.17;;
19374;SDS011;9823;50.936;4.046;2023-02-28T14:05:36;5.90;;;2.83;;
19374;SDS011;9823;50.936;4.046;2023-02-28T14:08:13;5.90;;;3.10;;
19374;SDS011;9823;50.936;4.046;2023-02-28T14:15:43;3.73;;;2.20;;
19374;SDS011;9823;50.936;4.046;2023-02-28T14:20:42;6.83;;;3.47;;
19374;SDS011;9823;50.936;4.046;2023-02-28T14:23:12;10.63;;;4.50;;
19374;SDS011;9823;50.936;4.046;2023-02-28T14:28:18;7.07;;;4.23;;
19374;SDS011;9823;50.936;4.046;2023-02-28T14:33:26;5.17;;;2.87;;
19374;SDS011;9823;50.936;4.046;2023-02-28T14:38:48;8.00;;;4.33;;
19374;SDS011;9823;50.936;4.046;2023-02-28T14:43:51;7.03;;;3.97;;
19374;SDS011;9823;50.936;4.046;2023-02-28T14:46:18;8.20;;;4.17;;
19374;SDS011;9823;50.936;4.046;2023-02-28T14:48:45;6.93;;;3.60;;
19374;SDS011;9823;50.936;4.046;2023-02-28T14:51:12;11.23;;;4.23;;
19374;SDS011;9823;50.936;4.046;2023-02-28T14:53:47;9.67;;;4.80;;
19374;SDS011;9823;50.936;4.046;2023-02-28T14:56:19;8.83;;;3.80;;
19374;SDS011;9823;50.936;4.046;2023-02-28T14:58:54;5.93;;;3.53;;
19374;SDS011;9823;50.936;4.046;2023-02-28T15:01:21;12.97;;;4.10;;
19374;SDS011;9823;50.936;4.046;2023-02-28T15:03:47;11.87;;;4.17;;
19374;SDS011;9823;50.936;4.046;2023-02-28T15:06:17;6.93;;;4.10;;
19374;SDS011;9823;50.936;4.046;2023-02-28T15:08:43;7.17;;;3.43;;
19374;SDS011;9823;50.936;4.046;2023-02-28T15:13:42;6.53;;;4.17;;
19374;SDS011;9823;50.936;4.046;2023-02-28T15:18:49;9.13;;;4.13;;
19374;SDS011;9823;50.936;4.046;2023-02-28T15:21:20;9.53;;;3.97;;
19374;SDS011;9823;50.936;4.046;2023-02-28T15:26:26;7.37;;;4.10;;
19374;SDS011;9823;50.936;4.046;2023-02-28T15:28:54;9.63;;;4.43;;
19374;SDS011;9823;50.936;4.046;2023-02-28T15:31:26;8.53;;;4.53;;
19374;SDS011;9823;50.936;4.046;2023-02-28T15:33:56;8.43;;;4.33;;
19374;SDS011;9823;50.936;4.046;2023-02-28T15:36:26;5.80;;;4.00;;
19374;SDS011;9823;50.936;4.046;2023-02-28T15:38:54;10.53;;;4.40;;
19374;SDS011;9823;50.936;4.046;2023-02-28T15:41:27;9.23;;;3.53;;
19374;SDS011;9823;50.936;4.046;2023-02-28T15:44:23;6.83;;;3.60;;
19374;SDS011;9823;50.936;4.046;2023-02-28T15:46:58;8.47;;;4.17;;
19374;SDS011;9823;50.936;4.046;2023-02-28T15:49:26;8.77;;;3.90;;
19374;SDS011;9823;50.936;4.046;2023-02-28T15:51:53;10.03;;;4.47;;
19374;SDS011;9823;50.936;4.046;2023-02-28T15:54:24;6.83;;;4.07;;
19374;SDS011;9823;50.936;4.046;2023-02-28T15:56:53;9.77;;;5.17;;
19374;SDS011;9823;50.936;4.046;2023-02-28T15:59:30;12.67;;;6.03;;
19374;SDS011;9823;50.936;4.046;2023-02-28T16:04:37;8.40;;;4.20;;
19374;SDS011;9823;50.936;4.046;2023-02-28T16:07:19;6.53;;;3.77;;
19374;SDS011;9823;50.936;4.046;2023-02-28T16:09:45;6.33;;;3.13;;
19374;SDS011;9823;50.936;4.046;2023-02-28T16:12:13;10.87;;;3.87;;
19374;SDS011;9823;50.936;4.046;2023-02-28T16:14:39;8.57;;;5.10;;
19374;SDS011;9823;50.936;4.046;2023-02-28T16:17:07;13.50;;;4.37;;
19374;SDS011;9823;50.936;4.046;2023-02-28T16:19:38;10.60;;;4.50;;
19374;SDS011;9823;50.936;4.046;2023-02-28T16:22:07;14.60;;;5.40;;
19374;SDS011;9823;50.936;4.046;2023-02-28T16:24:36;8.67;;;4.80;;
19374;SDS011;9823;50.936;4.046;2023-02-28T16:27:03;9.30;;;4.90;;
19374;SDS011;9823;50.936;4.046;2023-02-28T16:29:34;10.23;;;5.03;;
19374;SDS011;9823;50.936;4.046;2023-02-28T16:32:01;10.47;;;5.57;;
19374;SDS011;9823;50.936;4.046;2023-02-28T16:34:27;11.40;;;4.87;;
19374;SDS011;9823;50.936;4.046;2023-02-28T16:36:53;11.70;;;4.77;;
19374;SDS011;9823;50.936;4.046;2023-02-28T16:39:20;9.90;;;3.87;;
19374;SDS011;9823;50.936;4.046;2023-02-28T16:41:51;11.90;;;4.73;;
19374;SDS011;9823;50.936;4.046;2023-02-28T16:44:26;13.30;;;4.90;;
19374;SDS011;9823;50.936;4.046;2023-02-28T16:46:53;12.10;;;4.67;;
19374;SDS011;9823;50.936;4.046;2023-02-28T16:49:19;10.47;;;4.63;;
19374;SDS011;9823;50.936;4.046;2023-02-28T16:51:45;7.13;;;3.40;;
19374;SDS011;9823;50.936;4.046;2023-02-28T16:54:14;9.53;;;4.87;;
19374;SDS011;9823;50.936;4.046;2023-02-28T16:56:44;13.23;;;4.53;;
19374;SDS011;9823;50.936;4.046;2023-02-28T16:59:11;6.93;;;4.53;;
19374;SDS011;9823;50.936;4.046;2023-02-28T17:01:37;11.40;;;4.80;;
19374;SDS011;9823;50.936;4.046;2023-02-28T17:04:03;11.33;;;5.03;;
19374;SDS011;9823;50.936;4.046;2023-02-28T17:06:29;7.93;;;4.07;;
19374;SDS011;9823;50.936;4.046;2023-02-28T17:08:56;8.97;;;5.20;;
19374;SDS011;9823;50.936;4.046;2023-02-28T17:11:22;8.07;;;4.67;;
19374;SDS011;9823;50.936;4.046;2023-02-28T17:13:48;9.73;;;4.50;;
19374;SDS011;9823;50.936;4.046;2023-02-28T17:18:53;12.50;;;4.80;;
19374;SDS011;9823;50.936;4.046;2023-02-28T17:21:23;12.33;;;6.30;;
19374;SDS011;9823;50.936;4.046;2023-02-28T17:23:52;8.27;;;4.40;;
19374;SDS011;9823;50.936;4.046;2023-02-28T17:26:18;8.77;;;4.80;;
19374;SDS011;9823;50.936;4.046;2023-02-28T17:28:45;10.67;;;5.10;;
19374;SDS011;9823;50.936;4.046;2023-02-28T17:31:11;11.83;;;5.80;;
19374;SDS011;9823;50.936;4.046;2023-02-28T17:33:40;9.87;;;5.30;;
19374;SDS011;9823;50.936;4.046;2023-02-28T17:36:08;11.33;;;5.37;;
19374;SDS011;9823;50.936;4.046;2023-02-28T17:38:38;13.67;;;5.70;;
19374;SDS011;9823;50.936;4.046;2023-02-28T17:41:04;11.73;;;5.43;;
19374;SDS011;9823;50.936;4.046;2023-02-28T17:43:30;12.17;;;5.17;;
19374;SDS011;9823;50.936;4.046;2023-02-28T17:45:56;17.23;;;5.97;;
19374;SDS011;9823;50.936;4.046;2023-02-28T17:48:25;8.63;;;5.27;;
19374;SDS011;9823;50.936;4.046;2023-02-28T17:50:51;17.10;;;7.20;;
19374;SDS011;9823;50.936;4.046;2023-02-28T17:53:20;13.30;;;6.07;;
19374;SDS011;9823;50.936;4.046;2023-02-28T17:55:50;13.67;;;5.40;;
19374;SDS011;9823;50.936;4.046;2023-02-28T17:58:16;13.90;;;6.63;;
19374;SDS011;9823;50.936;4.046;2023-02-28T18:00:44;10.63;;;5.57;;
19374;SDS011;9823;50.936;4.046;2023-02-28T18:03:12;14.90;;;7.07;;
19374;SDS011;9823;50.936;4.046;2023-02-28T18:05:38;9.20;;;5.47;;